createdAt,value
2016-10-03T00:00:20.202Z,0
2016-10-03T00:01:19.868Z,0
2016-10-03T00:02:19.852Z,0
2016-10-03T00:03:19.853Z,0
2016-10-03T00:04:19.825Z,0
2016-10-03T00:05:19.816Z,0
2016-10-03T00:06:20.430Z,0
2016-10-03T00:07:20.100Z,0
2016-10-03T00:08:19.772Z,0
2016-10-03T00:09:20.079Z,0
2016-10-03T00:10:19.748Z,0
2016-10-03T00:11:19.742Z,0
2016-10-03T00:12:19.733Z,0
2016-10-03T00:13:20.021Z,0
2016-10-03T00:14:19.703Z,0
2016-10-03T00:15:19.997Z,0
2016-10-03T00:16:19.673Z,0
2016-10-03T00:17:19.978Z,0
2016-10-03T00:18:19.652Z,0
2016-10-03T00:19:19.957Z,0
2016-10-03T00:20:19.629Z,0
2016-10-03T00:21:19.611Z,0
2016-10-03T00:22:19.906Z,0
2016-10-03T00:23:19.898Z,0
2016-10-03T00:24:19.576Z,0
2016-10-03T00:25:19.563Z,0
2016-10-03T00:26:19.551Z,0
2016-10-03T00:27:19.849Z,0
2016-10-03T00:28:19.840Z,0
2016-10-03T00:29:19.511Z,0
2016-10-03T00:30:19.815Z,0
2016-10-03T00:31:19.488Z,0
2016-10-03T00:32:19.472Z,0
2016-10-03T00:33:19.459Z,0
2016-10-03T00:34:19.757Z,0
2016-10-03T00:35:19.435Z,0
2016-10-03T00:36:19.426Z,0
2016-10-03T00:37:19.408Z,0
2016-10-03T00:38:19.711Z,0
2016-10-03T00:39:20.019Z,0
2016-10-03T00:40:19.689Z,0
2016-10-03T00:41:19.350Z,0
2016-10-03T00:42:19.354Z,0
2016-10-03T00:43:19.342Z,0
2016-10-03T00:44:19.317Z,0
2016-10-03T00:45:19.623Z,0
2016-10-03T00:46:19.300Z,0
2016-10-03T00:47:19.286Z,0
2016-10-03T00:48:19.261Z,0
2016-10-03T00:49:19.569Z,0
2016-10-03T00:50:19.241Z,0
2016-10-03T00:51:19.233Z,0
2016-10-03T00:52:19.221Z,0
2016-10-03T00:53:19.516Z,0
2016-10-03T00:54:19.520Z,0
2016-10-03T00:55:19.690Z,0
2016-10-03T00:56:19.165Z,0
2016-10-03T00:57:19.155Z,0
2016-10-03T00:58:19.138Z,0
2016-10-03T00:59:19.443Z,0
2016-10-03T01:00:19.434Z,0
2016-10-03T01:01:19.105Z,0
2016-10-03T01:02:19.093Z,0
2016-10-03T01:03:19.087Z,0
2016-10-03T01:04:19.057Z,0
2016-10-03T01:05:19.061Z,0
2016-10-03T01:06:19.040Z,0
2016-10-03T01:07:19.732Z,0
2016-10-03T01:08:19.017Z,0
2016-10-03T01:09:18.996Z,0
2016-10-03T01:10:19.002Z,0
2016-10-03T01:11:19.596Z,0
2016-10-03T01:12:18.964Z,0
2016-10-03T01:13:19.158Z,0
2016-10-03T01:14:19.250Z,0
2016-10-03T01:15:18.938Z,0
2016-10-03T01:16:18.909Z,0
2016-10-03T01:17:18.898Z,0
2016-10-03T01:18:18.882Z,0
2016-10-03T01:19:18.875Z,0
2016-10-03T01:20:18.865Z,0
2016-10-03T01:21:18.848Z,0
2016-10-03T01:22:18.841Z,0
2016-10-03T01:23:18.823Z,0
2016-10-03T01:24:18.827Z,0
2016-10-03T01:25:18.795Z,0
2016-10-03T01:26:18.986Z,0
2016-10-03T01:27:18.783Z,0
2016-10-03T01:28:18.767Z,0
2016-10-03T01:29:19.081Z,0
2016-10-03T01:30:18.735Z,0
2016-10-03T01:31:19.038Z,0
2016-10-03T01:32:19.018Z,0
2016-10-03T01:33:19.017Z,0
2016-10-03T01:34:18.703Z,0
2016-10-03T01:35:18.671Z,0
2016-10-03T01:36:18.973Z,0
2016-10-03T01:37:18.956Z,0
2016-10-03T01:38:18.640Z,0
2016-10-03T01:39:18.618Z,0
2016-10-03T01:40:18.606Z,0
2016-10-03T01:41:18.910Z,0
2016-10-03T01:42:18.582Z,0
2016-10-03T01:43:18.885Z,0
2016-10-03T01:44:18.865Z,0
2016-10-03T01:45:18.858Z,0
2016-10-03T01:46:18.537Z,0
2016-10-03T01:47:18.528Z,0
2016-10-03T01:48:18.507Z,0
2016-10-03T01:49:18.800Z,0
2016-10-03T01:50:18.794Z,0
2016-10-03T01:51:18.463Z,0
2016-10-03T01:52:19.083Z,0
2016-10-03T01:53:18.449Z,0
2016-10-03T01:54:18.428Z,0
2016-10-03T01:55:18.416Z,0
2016-10-03T01:56:18.398Z,0
2016-10-03T01:57:18.394Z,0
2016-10-03T01:58:18.695Z,0
2016-10-03T01:59:18.687Z,0
2016-10-03T02:00:18.675Z,0
2016-10-03T02:01:18.647Z,0
2016-10-03T02:02:18.336Z,0
2016-10-03T02:03:18.639Z,0
2016-10-03T02:04:18.300Z,0
2016-10-03T02:05:18.288Z,0
2016-10-03T02:06:18.281Z,0
2016-10-03T02:07:18.263Z,0
2016-10-03T02:08:18.558Z,0
2016-10-03T02:09:18.554Z,0
2016-10-03T02:10:18.548Z,0
2016-10-03T02:11:18.211Z,0
2016-10-03T02:12:18.196Z,0
2016-10-03T02:13:18.500Z,0
2016-10-03T02:14:18.206Z,0
2016-10-03T02:15:18.794Z,0
2016-10-03T02:16:18.457Z,0
2016-10-03T02:17:18.138Z,0
2016-10-03T02:18:18.130Z,0
2016-10-03T02:19:18.111Z,0
2016-10-03T02:20:18.099Z,0
2016-10-03T02:21:18.079Z,0
2016-10-03T02:22:18.382Z,0
2016-10-03T02:23:18.053Z,0
2016-10-03T02:24:18.039Z,0
2016-10-03T02:25:18.037Z,0
2016-10-03T02:26:18.639Z,0
2016-10-03T02:27:18.018Z,0
2016-10-03T02:28:18.021Z,0
2016-10-03T02:29:18.290Z,0
2016-10-03T02:30:17.969Z,0
2016-10-03T02:31:18.272Z,0
2016-10-03T02:32:18.250Z,0
2016-10-03T02:33:18.540Z,0
2016-10-03T02:34:17.913Z,0
2016-10-03T02:35:17.923Z,0
2016-10-03T02:36:17.883Z,0
2016-10-03T02:37:17.883Z,0
2016-10-03T02:38:17.859Z,0
2016-10-03T02:39:18.474Z,0
2016-10-03T02:40:17.827Z,0
2016-10-03T02:41:17.816Z,0
2016-10-03T02:42:17.824Z,0
2016-10-03T02:43:17.791Z,0
2016-10-03T02:44:17.777Z,0
2016-10-03T02:45:17.759Z,0
2016-10-03T02:46:18.074Z,0
2016-10-03T02:47:17.741Z,0
2016-10-03T02:48:18.045Z,0
2016-10-03T02:49:17.713Z,0
2016-10-03T02:50:18.010Z,0
2016-10-03T02:51:17.998Z,0
2016-10-03T02:52:17.664Z,0
2016-10-03T02:53:17.665Z,0
2016-10-03T02:54:17.641Z,0
2016-10-03T02:55:18.778Z,0
2016-10-03T02:56:17.932Z,0
2016-10-03T02:57:18.238Z,0
2016-10-03T02:58:17.589Z,0
2016-10-03T02:59:17.587Z,0
2016-10-03T03:00:17.885Z,0
2016-10-03T03:01:17.564Z,0
2016-10-03T03:02:17.844Z,0
2016-10-03T03:03:17.536Z,0
2016-10-03T03:04:18.140Z,0
2016-10-03T03:05:17.816Z,0
2016-10-03T03:06:17.484Z,0
2016-10-03T03:07:17.790Z,0
2016-10-03T03:08:17.776Z,0
2016-10-03T03:09:17.448Z,0
2016-10-03T03:10:17.752Z,0
2016-10-03T03:11:17.729Z,0
2016-10-03T03:12:18.350Z,0
2016-10-03T03:13:17.394Z,0
2016-10-03T03:14:17.690Z,0
2016-10-03T03:15:17.369Z,0
2016-10-03T03:16:17.664Z,0
2016-10-03T03:17:17.353Z,0
2016-10-03T03:18:17.324Z,0
2016-10-03T03:19:17.316Z,0
2016-10-03T03:20:17.308Z,0
2016-10-03T03:21:17.920Z,0
2016-10-03T03:22:17.270Z,0
2016-10-03T03:23:17.252Z,0
2016-10-03T03:24:17.264Z,0
2016-10-03T03:25:17.536Z,0
2016-10-03T03:26:17.229Z,0
2016-10-03T03:27:17.210Z,0
2016-10-03T03:28:17.190Z,0
2016-10-03T03:29:17.176Z,0
2016-10-03T03:30:17.159Z,0
2016-10-03T03:31:17.469Z,0
2016-10-03T03:32:17.445Z,0
2016-10-03T03:33:17.452Z,0
2016-10-03T03:34:17.146Z,0
2016-10-03T03:35:17.449Z,0
2016-10-03T03:36:17.090Z,0
2016-10-03T03:37:17.074Z,0
2016-10-03T03:38:17.056Z,0
2016-10-03T03:39:17.674Z,0
2016-10-03T03:40:17.666Z,0
2016-10-03T03:41:17.017Z,0
2016-10-03T03:42:17.007Z,0
2016-10-03T03:43:17.624Z,0
2016-10-03T03:44:16.992Z,0
2016-10-03T03:45:16.967Z,0
2016-10-03T03:46:17.576Z,0
2016-10-03T03:47:17.251Z,0
2016-10-03T03:48:16.931Z,0
2016-10-03T03:49:16.907Z,0
2016-10-03T03:50:17.529Z,0
2016-10-03T03:51:17.518Z,0
2016-10-03T03:52:16.860Z,0
2016-10-03T03:53:16.855Z,0
2016-10-03T03:54:17.363Z,0
2016-10-03T03:55:17.459Z,0
2016-10-03T03:56:17.449Z,0
2016-10-03T03:57:16.797Z,0
2016-10-03T03:58:16.790Z,0
2016-10-03T03:59:16.770Z,0
2016-10-03T04:00:16.764Z,0
2016-10-03T04:01:16.769Z,0
2016-10-03T04:02:16.737Z,0
2016-10-03T04:03:16.726Z,0
2016-10-03T04:04:17.020Z,0
2016-10-03T04:05:17.010Z,0
2016-10-03T04:06:16.684Z,0
2016-10-03T04:07:16.672Z,0
2016-10-03T04:08:16.657Z,0
2016-10-03T04:09:16.642Z,0
2016-10-03T04:10:16.632Z,0
2016-10-03T04:11:16.928Z,0
2016-10-03T04:12:17.238Z,0
2016-10-03T04:13:16.604Z,0
2016-10-03T04:14:16.892Z,0
2016-10-03T04:15:16.876Z,0
2016-10-03T04:16:16.547Z,0
2016-10-03T04:17:16.533Z,0
2016-10-03T04:18:16.520Z,0
2016-10-03T04:19:16.512Z,0
2016-10-03T04:20:16.497Z,0
2016-10-03T04:21:16.805Z,0
2016-10-03T04:22:16.463Z,0
2016-10-03T04:23:16.795Z,0
2016-10-03T04:24:17.068Z,0
2016-10-03T04:25:16.756Z,0
2016-10-03T04:26:16.417Z,0
2016-10-03T04:27:16.401Z,0
2016-10-03T04:28:16.396Z,0
2016-10-03T04:29:16.380Z,0
2016-10-03T04:30:16.702Z,0
2016-10-03T04:31:16.981Z,0
2016-10-03T04:32:16.339Z,0
2016-10-03T04:33:16.326Z,0
2016-10-03T04:34:16.323Z,0
2016-10-03T04:35:16.298Z,0
2016-10-03T04:36:16.601Z,0
2016-10-03T04:37:16.595Z,0
2016-10-03T04:38:16.577Z,0
2016-10-03T04:39:16.576Z,0
2016-10-03T04:40:16.227Z,0
2016-10-03T04:41:16.229Z,0
2016-10-03T04:42:16.519Z,0
2016-10-03T04:43:16.196Z,0
2016-10-03T04:44:16.500Z,0
2016-10-03T04:45:16.168Z,0
2016-10-03T04:46:16.472Z,0
2016-10-03T04:47:16.775Z,0
2016-10-03T04:48:16.137Z,0
2016-10-03T04:49:16.116Z,0
2016-10-03T04:50:16.111Z,0
2016-10-03T04:51:16.081Z,0
2016-10-03T04:52:16.079Z,0
2016-10-03T04:53:16.070Z,0
2016-10-03T04:54:16.068Z,0
2016-10-03T04:55:16.253Z,0
2016-10-03T04:56:16.041Z,0
2016-10-03T04:57:16.335Z,0
2016-10-03T04:58:16.002Z,0
2016-10-03T04:59:16.308Z,0
2016-10-03T05:00:16.280Z,0
2016-10-03T05:01:16.280Z,0
2016-10-03T05:02:16.259Z,0
2016-10-03T05:03:15.937Z,0
2016-10-03T05:04:15.920Z,0
2016-10-03T05:05:15.909Z,0
2016-10-03T05:06:16.214Z,0
2016-10-03T05:07:15.890Z,0
2016-10-03T05:08:16.183Z,0
2016-10-03T05:09:15.852Z,0
2016-10-03T05:10:15.852Z,0
2016-10-03T05:11:16.154Z,0
2016-10-03T05:12:15.824Z,0
2016-10-03T05:13:15.813Z,0
2016-10-03T05:14:15.793Z,0
2016-10-03T05:15:15.780Z,0
2016-10-03T05:16:15.769Z,0
2016-10-03T05:17:16.072Z,0
2016-10-03T05:18:15.745Z,0
2016-10-03T05:19:16.048Z,0
2016-10-03T05:20:16.029Z,0
2016-10-03T05:21:15.705Z,0
2016-10-03T05:22:16.017Z,0
2016-10-03T05:23:15.994Z,0
2016-10-03T05:24:15.665Z,0
2016-10-03T05:25:15.647Z,0
2016-10-03T05:26:15.641Z,0
2016-10-03T05:27:15.940Z,0
2016-10-03T05:28:15.613Z,0
2016-10-03T05:29:15.603Z,0
2016-10-03T05:30:15.590Z,0
2016-10-03T05:31:15.576Z,0
2016-10-03T05:32:15.884Z,0
2016-10-03T05:33:15.583Z,0
2016-10-03T05:34:15.855Z,0
2016-10-03T05:35:15.519Z,0
2016-10-03T05:36:15.502Z,0
2016-10-03T05:37:15.495Z,5
2016-10-03T05:38:15.802Z,5
2016-10-03T05:39:15.786Z,5
2016-10-03T05:40:15.455Z,5
2016-10-03T05:41:15.444Z,5
2016-10-03T05:42:15.440Z,5
2016-10-03T05:43:15.737Z,5
2016-10-03T05:44:15.419Z,5
2016-10-03T05:45:15.705Z,5
2016-10-03T05:46:15.380Z,10
2016-10-03T05:47:15.690Z,10
2016-10-03T05:48:15.671Z,10
2016-10-03T05:49:15.657Z,10
2016-10-03T05:50:15.962Z,10
2016-10-03T05:51:15.318Z,10
2016-10-03T05:52:15.616Z,10
2016-10-03T05:53:15.601Z,10
2016-10-03T05:54:15.486Z,10
2016-10-03T05:55:15.267Z,15
2016-10-03T05:56:15.249Z,15
2016-10-03T05:57:15.868Z,15
2016-10-03T05:58:15.222Z,15
2016-10-03T05:59:15.217Z,10
2016-10-03T06:00:15.504Z,10
2016-10-03T06:01:15.186Z,15
2016-10-03T06:02:15.484Z,15
2016-10-03T06:03:15.159Z,15
2016-10-03T06:04:15.773Z,15
2016-10-03T06:05:15.135Z,15
2016-10-03T06:06:15.123Z,20
2016-10-03T06:07:15.109Z,20
2016-10-03T06:08:15.422Z,20
2016-10-03T06:09:15.396Z,20
2016-10-03T06:10:15.069Z,20
2016-10-03T06:11:15.059Z,20
2016-10-03T06:12:15.672Z,20
2016-10-03T06:13:15.351Z,20
2016-10-03T06:14:15.337Z,20
2016-10-03T06:15:15.326Z,20
2016-10-03T06:16:14.984Z,20
2016-10-03T06:17:14.984Z,20
2016-10-03T06:18:15.284Z,20
2016-10-03T06:19:15.277Z,20
2016-10-03T06:20:14.942Z,25
2016-10-03T06:21:15.236Z,25
2016-10-03T06:22:15.236Z,25
2016-10-03T06:23:14.903Z,25
2016-10-03T06:24:14.898Z,30
2016-10-03T06:25:14.888Z,30
2016-10-03T06:26:15.493Z,30
2016-10-03T06:27:15.175Z,30
2016-10-03T06:28:14.836Z,30
2016-10-03T06:29:14.829Z,30
2016-10-03T06:30:14.805Z,35
2016-10-03T06:31:14.806Z,35
2016-10-03T06:32:14.784Z,35
2016-10-03T06:33:15.404Z,40
2016-10-03T06:34:14.772Z,40
2016-10-03T06:35:14.752Z,45
2016-10-03T06:36:14.742Z,45
2016-10-03T06:37:15.350Z,45
2016-10-03T06:38:14.732Z,50
2016-10-03T06:39:15.014Z,50
2016-10-03T06:40:15.007Z,50
2016-10-03T06:41:14.679Z,45
2016-10-03T06:42:14.660Z,40
2016-10-03T06:43:14.645Z,40
2016-10-03T06:44:14.638Z,35
2016-10-03T06:45:14.625Z,35
2016-10-03T06:46:14.926Z,35
2016-10-03T06:47:14.606Z,30
2016-10-03T06:48:14.604Z,35
2016-10-03T06:49:14.576Z,35
2016-10-03T06:50:14.935Z,40
2016-10-03T06:51:14.565Z,40
2016-10-03T06:52:14.856Z,45
2016-10-03T06:53:15.154Z,45
2016-10-03T06:54:14.826Z,40
2016-10-03T06:55:14.697Z,40
2016-10-03T06:56:14.488Z,40
2016-10-03T06:57:14.473Z,40
2016-10-03T06:58:14.590Z,40
2016-10-03T06:59:14.770Z,35
2016-10-03T07:00:14.438Z,35
2016-10-03T07:01:15.048Z,35
2016-10-03T07:02:14.738Z,35
2016-10-03T07:03:14.398Z,35
2016-10-03T07:04:14.377Z,35
2016-10-03T07:05:15.007Z,40
2016-10-03T07:06:14.359Z,40
2016-10-03T07:07:14.351Z,45
2016-10-03T07:08:14.331Z,45
2016-10-03T07:09:14.958Z,45
2016-10-03T07:10:14.306Z,45
2016-10-03T07:11:14.297Z,45
2016-10-03T07:12:14.289Z,55
2016-10-03T07:13:14.582Z,60
2016-10-03T07:14:14.573Z,60
2016-10-03T07:15:14.235Z,60
2016-10-03T07:16:14.561Z,60
2016-10-03T07:17:14.536Z,60
2016-10-03T07:18:14.217Z,60
2016-10-03T07:19:14.523Z,60
2016-10-03T07:20:14.497Z,60
2016-10-03T07:21:14.179Z,60
2016-10-03T07:22:14.161Z,60
2016-10-03T07:23:14.465Z,60
2016-10-03T07:24:14.130Z,65
2016-10-03T07:25:14.437Z,65
2016-10-03T07:26:14.101Z,70
2016-10-03T07:27:14.107Z,65
2016-10-03T07:28:14.389Z,65
2016-10-03T07:29:14.383Z,65
2016-10-03T07:30:14.076Z,65
2016-10-03T07:31:14.043Z,70
2016-10-03T07:32:14.669Z,85
2016-10-03T07:33:14.028Z,105
2016-10-03T07:34:14.329Z,105
2016-10-03T07:35:14.001Z,95
2016-10-03T07:36:14.307Z,95
2016-10-03T07:37:13.974Z,95
2016-10-03T07:38:13.965Z,105
2016-10-03T07:39:14.256Z,100
2016-10-03T07:40:14.255Z,105
2016-10-03T07:41:13.930Z,100
2016-10-03T07:42:14.614Z,110
2016-10-03T07:43:14.227Z,120
2016-10-03T07:44:13.891Z,110
2016-10-03T07:45:13.879Z,120
2016-10-03T07:46:13.862Z,100
2016-10-03T07:47:14.483Z,100
2016-10-03T07:48:14.160Z,95
2016-10-03T07:49:14.146Z,75
2016-10-03T07:50:14.127Z,70
2016-10-03T07:51:13.826Z,85
2016-10-03T07:52:13.789Z,105
2016-10-03T07:53:13.786Z,115
2016-10-03T07:54:13.780Z,120
2016-10-03T07:55:13.968Z,115
2016-10-03T07:56:13.748Z,115
2016-10-03T07:57:13.787Z,135
2016-10-03T07:58:13.720Z,160
2016-10-03T07:59:13.714Z,140
2016-10-03T08:00:14.033Z,95
2016-10-03T08:01:13.692Z,125
2016-10-03T08:02:13.680Z,145
2016-10-03T08:03:13.982Z,100
2016-10-03T08:04:13.656Z,105
2016-10-03T08:05:13.660Z,90
2016-10-03T08:06:13.940Z,75
2016-10-03T08:07:13.629Z,115
2016-10-03T08:08:13.934Z,110
2016-10-03T08:09:13.598Z,80
2016-10-03T08:10:13.911Z,120
2016-10-03T08:11:13.890Z,140
2016-10-03T08:12:13.564Z,135
2016-10-03T08:13:14.176Z,140
2016-10-03T08:14:13.540Z,170
2016-10-03T08:15:13.539Z,170
2016-10-03T08:16:13.518Z,150
2016-10-03T08:17:13.508Z,135
2016-10-03T08:18:13.813Z,155
2016-10-03T08:19:13.481Z,160
2016-10-03T08:20:13.783Z,175
2016-10-03T08:21:13.459Z,195
2016-10-03T08:22:13.440Z,215
2016-10-03T08:23:13.749Z,205
2016-10-03T08:24:13.419Z,200
2016-10-03T08:25:13.739Z,195
2016-10-03T08:26:13.714Z,190
2016-10-03T08:27:13.711Z,185
2016-10-03T08:28:13.382Z,195
2016-10-03T08:29:13.372Z,200
2016-10-03T08:30:13.356Z,185
2016-10-03T08:31:13.343Z,185
2016-10-03T08:32:13.333Z,160
2016-10-03T08:33:13.326Z,160
2016-10-03T08:34:13.319Z,185
2016-10-03T08:35:13.308Z,180
2016-10-03T08:36:13.598Z,175
2016-10-03T08:37:13.282Z,165
2016-10-03T08:38:13.274Z,175
2016-10-03T08:39:13.262Z,195
2016-10-03T08:40:13.261Z,195
2016-10-03T08:41:13.555Z,190
2016-10-03T08:42:13.856Z,165
2016-10-03T08:43:13.227Z,170
2016-10-03T08:44:13.226Z,185
2016-10-03T08:45:13.205Z,165
2016-10-03T08:46:13.194Z,140
2016-10-03T08:47:13.499Z,155
2016-10-03T08:48:13.496Z,200
2016-10-03T08:49:13.154Z,220
2016-10-03T08:50:13.145Z,210
2016-10-03T08:51:13.145Z,220
2016-10-03T08:52:13.125Z,200
2016-10-03T08:53:13.170Z,170
2016-10-03T08:54:13.123Z,180
2016-10-03T08:55:13.996Z,240
2016-10-03T08:56:13.413Z,270
2016-10-03T08:57:13.089Z,215
2016-10-03T08:58:13.074Z,220
2016-10-03T08:59:13.064Z,230
2016-10-03T09:00:13.049Z,195
2016-10-03T09:01:13.367Z,230
2016-10-03T09:02:13.029Z,310
2016-10-03T09:03:13.651Z,285
2016-10-03T09:04:13.004Z,230
2016-10-03T09:05:13.003Z,205
2016-10-03T09:06:13.299Z,180
2016-10-03T09:07:13.611Z,160
2016-10-03T09:08:13.639Z,150
2016-10-03T09:09:12.961Z,140
2016-10-03T09:10:12.961Z,150
2016-10-03T09:11:12.941Z,135
2016-10-03T09:12:13.257Z,140
2016-10-03T09:13:12.925Z,155
2016-10-03T09:14:13.235Z,165
2016-10-03T09:15:12.923Z,145
2016-10-03T09:16:12.914Z,140
2016-10-03T09:17:12.893Z,130
2016-10-03T09:18:13.180Z,115
2016-10-03T09:19:12.869Z,110
2016-10-03T09:20:13.493Z,115
2016-10-03T09:21:12.846Z,110
2016-10-03T09:22:13.173Z,85
2016-10-03T09:23:13.768Z,70
2016-10-03T09:24:12.825Z,55
2016-10-03T09:25:13.428Z,75
2016-10-03T09:26:13.114Z,100
2016-10-03T09:27:12.789Z,110
2016-10-03T09:28:12.781Z,110
2016-10-03T09:29:12.769Z,130
2016-10-03T09:30:12.758Z,120
2016-10-03T09:31:12.743Z,115
2016-10-03T09:32:13.048Z,140
2016-10-03T09:33:12.734Z,165
2016-10-03T09:34:12.717Z,185
2016-10-03T09:35:12.714Z,175
2016-10-03T09:36:13.014Z,170
2016-10-03T09:37:13.024Z,170
2016-10-03T09:38:12.679Z,185
2016-10-03T09:39:12.982Z,190
2016-10-03T09:40:12.970Z,185
2016-10-03T09:41:12.648Z,185
2016-10-03T09:42:13.581Z,250
2016-10-03T09:43:12.671Z,225
2016-10-03T09:44:12.618Z,185
2016-10-03T09:45:13.240Z,225
2016-10-03T09:46:12.611Z,240
2016-10-03T09:47:13.223Z,245
2016-10-03T09:48:12.893Z,255
2016-10-03T09:49:12.881Z,295
2016-10-03T09:50:12.873Z,320
2016-10-03T09:51:12.550Z,270
2016-10-03T09:52:12.844Z,200
2016-10-03T09:53:12.537Z,190
2016-10-03T09:54:12.822Z,290
2016-10-03T09:55:12.505Z,210
2016-10-03T09:56:12.836Z,205
2016-10-03T09:57:13.117Z,265
2016-10-03T09:58:12.485Z,315
2016-10-03T09:59:12.475Z,235
2016-10-03T10:00:12.775Z,270
2016-10-03T10:01:13.095Z,360
2016-10-03T10:02:12.792Z,365
2016-10-03T10:03:12.440Z,325
2016-10-03T10:04:12.764Z,290
2016-10-03T10:05:13.055Z,210
2016-10-03T10:06:12.729Z,240
2016-10-03T10:07:13.041Z,255
2016-10-03T10:08:12.390Z,235
2016-10-03T10:09:12.908Z,250
2016-10-03T10:10:13.011Z,230
2016-10-03T10:11:12.360Z,240
2016-10-03T10:12:12.994Z,245
2016-10-03T10:13:12.654Z,240
2016-10-03T10:14:12.647Z,245
2016-10-03T10:15:12.322Z,325
2016-10-03T10:16:12.321Z,405
2016-10-03T10:17:12.312Z,375
2016-10-03T10:18:12.616Z,295
2016-10-03T10:19:12.624Z,360
2016-10-03T10:20:12.281Z,315
2016-10-03T10:21:12.288Z,260
2016-10-03T10:22:12.262Z,240
2016-10-03T10:23:12.264Z,210
2016-10-03T10:24:12.597Z,185
2016-10-03T10:25:12.871Z,160
2016-10-03T10:26:12.231Z,145
2016-10-03T10:27:12.219Z,130
2016-10-03T10:28:12.532Z,115
2016-10-03T10:29:12.512Z,115
2016-10-03T10:30:12.199Z,115
2016-10-03T10:31:12.184Z,175
2016-10-03T10:32:12.187Z,205
2016-10-03T10:33:12.481Z,155
2016-10-03T10:34:12.839Z,160
2016-10-03T10:35:12.467Z,155
2016-10-03T10:36:12.144Z,200
2016-10-03T10:37:12.454Z,205
2016-10-03T10:38:12.130Z,175
2016-10-03T10:39:12.430Z,195
2016-10-03T10:40:12.102Z,350
2016-10-03T10:41:12.106Z,695
2016-10-03T10:42:12.401Z,605
2016-10-03T10:43:12.085Z,415
2016-10-03T10:44:12.408Z,430
2016-10-03T10:45:12.073Z,400
2016-10-03T10:46:12.378Z,225
2016-10-03T10:47:12.051Z,200
2016-10-03T10:48:12.055Z,365
2016-10-03T10:49:12.041Z,275
2016-10-03T10:50:12.356Z,270
2016-10-03T10:51:12.026Z,280
2016-10-03T10:52:12.326Z,290
2016-10-03T10:53:12.004Z,290
2016-10-03T10:54:11.994Z,360
2016-10-03T10:55:12.184Z,380
2016-10-03T10:56:12.301Z,340
2016-10-03T10:57:12.283Z,230
2016-10-03T10:58:11.956Z,175
2016-10-03T10:59:12.594Z,165
2016-10-03T11:00:12.252Z,180
2016-10-03T11:01:11.930Z,240
2016-10-03T11:02:12.558Z,335
2016-10-03T11:03:11.944Z,335
2016-10-03T11:04:11.957Z,355
2016-10-03T11:05:12.229Z,345
2016-10-03T11:06:11.889Z,370
2016-10-03T11:07:12.560Z,375
2016-10-03T11:08:12.200Z,240
2016-10-03T11:09:11.868Z,185
2016-10-03T11:10:12.173Z,185
2016-10-03T11:11:12.370Z,155
2016-10-03T11:12:11.839Z,140
2016-10-03T11:13:11.841Z,145
2016-10-03T11:14:11.828Z,150
2016-10-03T11:15:11.824Z,160
2016-10-03T11:16:11.817Z,175
2016-10-03T11:17:12.955Z,205
2016-10-03T11:18:11.801Z,270
2016-10-03T11:19:11.798Z,290
2016-10-03T11:20:12.094Z,290
2016-10-03T11:21:11.767Z,280
2016-10-03T11:22:11.764Z,370
2016-10-03T11:23:11.949Z,565
2016-10-03T11:24:11.798Z,465
2016-10-03T11:25:11.737Z,525
2016-10-03T11:26:11.737Z,345
2016-10-03T11:27:12.347Z,200
2016-10-03T11:28:11.721Z,175
2016-10-03T11:29:11.750Z,155
2016-10-03T11:30:12.335Z,135
2016-10-03T11:31:12.018Z,140
2016-10-03T11:32:12.015Z,140
2016-10-03T11:33:11.680Z,145
2016-10-03T11:34:11.669Z,165
2016-10-03T11:35:11.669Z,365
2016-10-03T11:36:11.653Z,410
2016-10-03T11:37:11.976Z,535
2016-10-03T11:38:11.950Z,1025
2016-10-03T11:39:11.969Z,1195
2016-10-03T11:40:12.294Z,1325
2016-10-03T11:41:11.950Z,1395
2016-10-03T11:42:11.941Z,1110
2016-10-03T11:43:11.604Z,1355
2016-10-03T11:44:11.658Z,1435
2016-10-03T11:45:11.912Z,625
2016-10-03T11:46:11.905Z,275
2016-10-03T11:47:11.894Z,230
2016-10-03T11:48:11.576Z,215
2016-10-03T11:49:11.879Z,210
2016-10-03T11:50:11.570Z,285
2016-10-03T11:51:11.562Z,1040
2016-10-03T11:52:11.562Z,405
2016-10-03T11:53:11.553Z,1340
2016-10-03T11:54:11.917Z,1080
2016-10-03T11:55:11.876Z,230
2016-10-03T11:56:11.537Z,1405
2016-10-03T11:57:12.166Z,1375
2016-10-03T11:58:11.837Z,1440
2016-10-03T11:59:11.835Z,1400
2016-10-03T12:00:11.830Z,860
2016-10-03T12:01:11.513Z,1280
2016-10-03T12:02:11.823Z,460
2016-10-03T12:03:11.842Z,415
2016-10-03T12:04:11.510Z,485
2016-10-03T12:05:11.506Z,390
2016-10-03T12:06:12.449Z,395
2016-10-03T12:07:11.493Z,425
2016-10-03T12:08:11.483Z,560
2016-10-03T12:09:11.794Z,565
2016-10-03T12:10:11.797Z,540
2016-10-03T12:11:12.114Z,570
2016-10-03T12:12:11.467Z,540
2016-10-03T12:13:11.781Z,720
2016-10-03T12:14:11.463Z,640
2016-10-03T12:15:11.770Z,685
2016-10-03T12:16:11.992Z,650
2016-10-03T12:17:11.763Z,650
2016-10-03T12:18:11.762Z,685
2016-10-03T12:19:12.065Z,580
2016-10-03T12:20:11.447Z,605
2016-10-03T12:21:12.068Z,695
2016-10-03T12:22:12.069Z,640
2016-10-03T12:23:11.729Z,645
2016-10-03T12:24:11.425Z,580
2016-10-03T12:25:11.462Z,565
2016-10-03T12:26:11.422Z,470
2016-10-03T12:27:11.715Z,415
2016-10-03T12:28:11.408Z,445
2016-10-03T12:29:11.710Z,555
2016-10-03T12:30:11.387Z,835
2016-10-03T12:31:11.705Z,1115
2016-10-03T12:32:11.382Z,390
2016-10-03T12:33:11.385Z,285
2016-10-03T12:34:11.686Z,335
2016-10-03T12:35:11.373Z,380
2016-10-03T12:36:12.011Z,415
2016-10-03T12:37:11.363Z,470
2016-10-03T12:38:11.365Z,710
2016-10-03T12:39:11.373Z,760
2016-10-03T12:40:11.355Z,825
2016-10-03T12:41:11.349Z,980
2016-10-03T12:42:11.653Z,945
2016-10-03T12:43:11.650Z,695
2016-10-03T12:44:11.329Z,695
2016-10-03T12:45:12.271Z,630
2016-10-03T12:46:11.330Z,565
2016-10-03T12:47:11.316Z,910
2016-10-03T12:48:11.313Z,1440
2016-10-03T12:49:11.621Z,1170
2016-10-03T12:50:11.670Z,690
2016-10-03T12:51:11.301Z,565
2016-10-03T12:52:11.628Z,915
2016-10-03T12:53:11.297Z,640
2016-10-03T12:54:11.290Z,535
2016-10-03T12:55:11.801Z,375
2016-10-03T12:56:11.297Z,355
2016-10-03T12:57:11.599Z,335
2016-10-03T12:58:11.604Z,315
2016-10-03T12:59:11.577Z,305
2016-10-03T13:00:11.913Z,295
2016-10-03T13:01:11.588Z,290
2016-10-03T13:02:11.272Z,285
2016-10-03T13:03:11.255Z,265
2016-10-03T13:04:11.259Z,255
2016-10-03T13:05:11.241Z,255
2016-10-03T13:06:11.569Z,250
2016-10-03T13:07:11.234Z,250
2016-10-03T13:08:11.254Z,275
2016-10-03T13:09:11.236Z,290
2016-10-03T13:10:11.287Z,295
2016-10-03T13:11:11.221Z,295
2016-10-03T13:12:11.529Z,305
2016-10-03T13:13:11.219Z,320
2016-10-03T13:14:11.525Z,330
2016-10-03T13:15:11.252Z,350
2016-10-03T13:16:11.823Z,395
2016-10-03T13:17:11.214Z,395
2016-10-03T13:18:11.529Z,385
2016-10-03T13:19:11.831Z,485
2016-10-03T13:20:11.177Z,445
2016-10-03T13:21:11.490Z,600
2016-10-03T13:22:11.167Z,650
2016-10-03T13:23:11.165Z,975
2016-10-03T13:24:11.161Z,1075
2016-10-03T13:25:11.517Z,815
2016-10-03T13:26:11.154Z,460
2016-10-03T13:27:11.148Z,425
2016-10-03T13:28:11.342Z,465
2016-10-03T13:29:11.143Z,340
2016-10-03T13:30:11.128Z,465
2016-10-03T13:31:11.118Z,340
2016-10-03T13:32:11.434Z,385
2016-10-03T13:33:11.115Z,345
2016-10-03T13:34:11.121Z,375
2016-10-03T13:35:11.790Z,920
2016-10-03T13:36:11.103Z,840
2016-10-03T13:37:11.103Z,735
2016-10-03T13:38:11.104Z,1010
2016-10-03T13:39:11.407Z,835
2016-10-03T13:40:11.096Z,555
2016-10-03T13:41:11.096Z,940
2016-10-03T13:42:11.393Z,1070
2016-10-03T13:43:11.072Z,810
2016-10-03T13:44:11.076Z,745
2016-10-03T13:45:11.110Z,475
2016-10-03T13:46:11.054Z,370
2016-10-03T13:47:11.363Z,385
2016-10-03T13:48:11.370Z,435
2016-10-03T13:49:11.062Z,420
2016-10-03T13:50:11.413Z,445
2016-10-03T13:51:11.050Z,425
2016-10-03T13:52:11.351Z,825
2016-10-03T13:53:11.364Z,725
2016-10-03T13:54:11.037Z,430
2016-10-03T13:55:11.084Z,460
2016-10-03T13:56:11.355Z,695
2016-10-03T13:57:11.028Z,355
2016-10-03T13:58:11.034Z,285
2016-10-03T13:59:11.328Z,240
2016-10-03T14:00:11.374Z,215
2016-10-03T14:01:11.003Z,155
2016-10-03T14:02:11.329Z,145
2016-10-03T14:03:11.307Z,125
2016-10-03T14:04:11.302Z,115
2016-10-03T14:05:11.299Z,105
2016-10-03T14:06:11.323Z,105
2016-10-03T14:07:10.986Z,115
2016-10-03T14:08:11.289Z,120
2016-10-03T14:09:11.288Z,120
2016-10-03T14:10:11.332Z,140
2016-10-03T14:11:11.940Z,160
2016-10-03T14:12:12.094Z,145
2016-10-03T14:13:11.711Z,135